Terminal Aerodrome Forecast
Issued by NWS Shreveport, LA

Current Version | Previous Version | Text Only | Print | Product List | Glossary On
Versions: 1 2 3 4 5 6 7 8 9 10 11 12 13 14 15 16 17 18 19 20 21 22 23 24
000
FTUS44 KSHV 291720
TAFSHV
TAF
KSHV 291720Z 2918/3018 17012KT P6SM VCTS BKN025CB
     FM300000 15010KT 3SM -TSRA BR OVC030CB
     FM300300 17016G23KT P6SM -TSRA OVC015CB
     FM300900 17015KT P6SM -TSRA OVC011CB=

USA.gov is the U.S. government's official web portal to all federal, state and local government web resources and services.